Time;durP1;ratioP1;P1;durP2;ratioP2;P2;SDS_P1;SDS_P2;PMS_P1;PMS_P2;Temp;Humidity;BMP_temperature;BMP_pressure;BME280_temperature;BME280_humidity;BME280_pressure;Samples;Min_cycle;Max_cycle;Signal;HPM_P1;HPM_P2
2022/06/16 00:00:19;;;;;;;3.10;2.80;;;18.50;99.90;;;;;;5075982;28;20221;-59
2022/06/16 00:02:52;;;;;;;3.92;2.88;;;18.40;99.90;;;;;;5075942;28;20220;-60
2022/06/16 00:05:21;;;;;;;2.78;2.28;;;18.40;99.90;;;;;;5075884;28;20236;-61
2022/06/16 00:07:49;;;;;;;2.60;2.30;;;18.30;99.90;;;;;;5075850;28;20228;-60
2022/06/16 00:10:17;;;;;;;3.53;2.55;;;18.20;99.90;;;;;;5074734;28;20268;-61
2022/06/16 00:12:44;;;;;;;2.85;2.30;;;18.10;99.90;;;;;;5075725;28;20626;-60
2022/06/16 00:15:14;;;;;;;3.33;2.60;;;18.10;99.90;;;;;;5075265;28;20211;-61
2022/06/16 00:17:41;;;;;;;3.67;2.78;;;18.20;99.90;;;;;;5075249;28;20208;-61
2022/06/16 00:20:09;;;;;;;4.13;2.75;;;18.20;99.90;;;;;;5074890;28;20217;-61
2022/06/16 00:22:37;;;;;;;2.97;2.65;;;18.10;99.90;;;;;;5074657;28;20209;-61
2022/06/16 00:25:06;;;;;;;6.28;2.38;;;18.10;99.90;;;;;;5075005;28;20205;-61
2022/06/16 00:27:33;;;;;;;3.35;2.50;;;18.00;99.90;;;;;;5074486;28;20205;-61
2022/06/16 00:30:00;;;;;;;3.83;2.25;;;18.00;99.90;;;;;;5074600;28;20236;-61
2022/06/16 00:32:28;;;;;;;6.15;2.83;;;17.90;99.90;;;;;;5075257;28;20569;-60
2022/06/16 00:34:55;;;;;;;3.65;2.78;;;18.00;99.90;;;;;;5074769;28;20212;-60
2022/06/16 00:37:21;;;;;;;4.07;2.70;;;18.00;99.90;;;;;;5074452;28;20224;-61
2022/06/16 00:39:48;;;;;;;2.92;2.60;;;18.10;99.90;;;;;;5074220;28;20718;-61
2022/06/16 00:42:18;;;;;;;5.63;2.80;;;18.10;99.90;;;;;;5073761;28;20233;-61
2022/06/16 00:44:50;;;;;;;3.58;2.22;;;18.10;99.90;;;;;;5074664;28;20705;-61
2022/06/16 00:47:18;;;;;;;3.47;2.58;;;18.00;99.90;;;;;;5073740;28;20291;-61
2022/06/16 00:49:48;;;;;;;3.58;2.45;;;18.00;99.90;;;;;;5074111;28;20228;-61
2022/06/16 00:52:17;;;;;;;3.58;2.40;;;17.90;99.90;;;;;;5074122;28;20296;-61
2022/06/16 00:54:51;;;;;;;4.88;3.03;;;17.90;99.90;;;;;;5074103;28;20205;-60
2022/06/16 00:57:22;;;;;;;4.05;2.83;;;17.90;99.90;;;;;;5074232;28;20308;-60
2022/06/16 00:59:49;;;;;;;3.83;2.63;;;17.70;99.90;;;;;;5073373;28;20231;-60
2022/06/16 01:02:17;;;;;;;4.10;2.70;;;17.60;99.90;;;;;;5073739;28;20253;-60
2022/06/16 01:04:51;;;;;;;5.57;3.40;;;17.60;99.90;;;;;;5073536;28;20209;-60
2022/06/16 01:07:24;;;;;;;4.57;3.42;;;17.60;99.90;;;;;;5074181;28;20560;-60
2022/06/16 01:09:52;;;;;;;4.60;3.15;;;17.60;99.90;;;;;;5073802;28;20233;-60
2022/06/16 01:15:29;;;;;;;4.57;3.15;;;17.50;99.90;;;;;;5074214;28;20238;-61
2022/06/16 01:18:10;;;;;;;4.72;2.60;;;17.50;99.90;;;;;;5073592;28;20227;-61
2022/06/16 01:20:45;;;;;;;3.40;2.70;;;17.50;99.90;;;;;;5073265;28;20227;-61
2022/06/16 01:23:39;;;;;;;3.90;2.60;;;17.50;99.90;;;;;;5072585;28;20212;-60
2022/06/16 01:26:29;;;;;;;4.38;3.03;;;17.40;99.90;;;;;;5073216;28;20579;-61
2022/06/16 01:29:09;;;;;;;4.05;2.80;;;17.40;99.90;;;;;;5073696;28;20209;-61
2022/06/16 01:31:44;;;;;;;4.32;3.17;;;17.40;99.90;;;;;;5073579;28;20231;-61
2022/06/16 01:34:14;;;;;;;5.82;2.80;;;17.40;99.90;;;;;;5073682;28;20211;-59
2022/06/16 01:36:51;;;;;;;4.10;2.50;;;17.40;99.90;;;;;;5073538;28;20263;-59
2022/06/16 01:39:26;;;;;;;4.72;2.60;;;17.40;99.90;;;;;;5073794;28;20205;-59
2022/06/16 01:41:57;;;;;;;4.80;2.80;;;17.40;99.90;;;;;;5073843;28;20239;-60
2022/06/16 01:44:32;;;;;;;4.05;2.75;;;17.40;99.90;;;;;;5073582;28;20211;-61
2022/06/16 01:47:06;;;;;;;4.95;2.88;;;17.40;99.90;;;;;;5072772;28;20222;-61
2022/06/16 01:49:38;;;;;;;4.15;2.85;;;17.40;99.90;;;;;;5073503;28;20235;-61
2022/06/16 01:52:11;;;;;;;5.50;3.00;;;17.40;99.90;;;;;;5073179;28;20208;-61
2022/06/16 01:54:42;;;;;;;5.38;2.65;;;17.40;99.90;;;;;;5072994;28;20220;-61
2022/06/16 01:57:16;;;;;;;3.90;2.70;;;17.30;99.90;;;;;;5073210;28;20205;-61
2022/06/16 01:59:51;;;;;;;3.10;2.80;;;17.30;99.90;;;;;;5072900;28;20712;-61
2022/06/16 02:02:19;;;;;;;3.60;3.15;;;17.30;99.90;;;;;;5073293;28;20213;-61
2022/06/16 02:04:50;;;;;;;5.22;3.10;;;17.30;99.90;;;;;;5073848;28;20215;-61
2022/06/16 02:07:22;;;;;;;4.70;3.17;;;17.20;99.90;;;;;;5074043;28;20574;-60
2022/06/16 02:09:51;;;;;;;5.47;2.90;;;17.20;99.90;;;;;;5074313;28;20228;-61
2022/06/16 02:15:09;;;;;;;3.87;2.93;;;17.20;99.90;;;;;;5073327;28;20247;-61
2022/06/16 02:17:36;;;;;;;3.28;2.70;;;17.20;99.90;;;;;;5073982;28;20193;-61
2022/06/16 02:20:03;;;;;;;2.93;2.70;;;17.10;99.90;;;;;;5073216;28;20217;-61
2022/06/16 02:22:31;;;;;;;4.40;3.10;;;17.00;99.90;;;;;;5072768;28;20211;-61
2022/06/16 02:24:58;;;;;;;4.30;2.70;;;17.00;99.90;;;;;;5073022;28;20220;-61
2022/06/16 02:27:25;;;;;;;4.53;2.70;;;17.00;99.90;;;;;;5072522;28;20664;-60
2022/06/16 02:29:51;;;;;;;4.85;2.90;;;17.00;99.90;;;;;;5072480;28;20225;-61
2022/06/16 02:32:55;;;;;;;4.63;3.13;;;17.10;99.90;;;;;;5073135;28;20201;-61
2022/06/16 02:35:31;;;;;;;4.70;3.23;;;17.00;99.90;;;;;;5076967;28;20216;-61
2022/06/16 02:38:09;;;;;;;3.13;2.83;;;17.00;99.90;;;;;;5078190;28;20228;-61
2022/06/16 02:40:57;;;;;;;4.00;3.07;;;17.00;99.90;;;;;;5077890;28;20216;-60
2022/06/16 02:43:44;;;;;;;5.23;2.87;;;17.00;99.90;;;;;;5077072;28;20649;-60
2022/06/16 02:46:19;;;;;;;3.78;2.83;;;17.00;99.90;;;;;;5078140;28;20212;-60
2022/06/16 02:48:52;;;;;;;3.63;2.75;;;16.90;99.90;;;;;;5077315;28;20676;-60
2022/06/16 02:51:27;;;;;;;4.40;2.97;;;16.90;99.90;;;;;;5077951;28;20225;-61
2022/06/16 02:54:02;;;;;;;4.53;3.17;;;16.90;99.90;;;;;;5077832;28;20215;-61
2022/06/16 02:56:35;;;;;;;3.30;3.00;;;16.90;99.90;;;;;;5079003;28;20649;-60
2022/06/16 02:59:05;;;;;;;7.43;3.50;;;16.90;99.90;;;;;;5078943;28;20245;-61
2022/06/16 03:01:33;;;;;;;4.60;2.92;;;16.90;99.90;;;;;;5078653;28;20764;-60
2022/06/16 03:04:07;;;;;;;5.38;3.03;;;16.80;99.90;;;;;;5078398;28;20208;-60
2022/06/16 03:06:34;;;;;;;4.50;3.07;;;16.70;99.90;;;;;;5079643;28;20212;-59
2022/06/16 03:09:01;;;;;;;5.63;3.40;;;16.70;99.90;;;;;;5079403;28;20201;-59
2022/06/16 03:11:28;;;;;;;4.38;3.35;;;16.70;99.90;;;;;;5078039;28;20241;-59
2022/06/16 03:13:56;;;;;;;4.03;3.00;;;16.80;99.90;;;;;;5077943;28;20215;-59
2022/06/16 03:16:24;;;;;;;3.33;3.03;;;16.80;99.90;;;;;;5078083;28;20208;-59
2022/06/16 03:18:51;;;;;;;3.97;3.13;;;16.70;99.90;;;;;;5077944;28;20209;-59
2022/06/16 03:21:19;;;;;;;5.22;3.13;;;16.70;99.90;;;;;;5078020;28;20225;-59
2022/06/16 03:23:46;;;;;;;5.47;3.15;;;16.70;99.90;;;;;;5077997;28;20209;-59
2022/06/16 03:26:13;;;;;;;3.53;3.03;;;16.70;99.90;;;;;;5077456;28;20236;-59
2022/06/16 03:28:40;;;;;;;4.70;3.38;;;16.80;99.90;;;;;;5078573;28;20224;-59
2022/06/16 03:31:07;;;;;;;7.63;3.40;;;16.80;99.90;;;;;;5078516;28;20237;-59
2022/06/16 03:33:34;;;;;;;5.53;3.17;;;16.90;99.90;;;;;;5078131;28;20216;-59
2022/06/16 03:36:01;;;;;;;4.15;3.13;;;17.00;99.90;;;;;;5077610;28;20216;-59
2022/06/16 03:38:33;;;;;;;3.97;3.03;;;17.00;99.90;;;;;;5077831;28;20699;-59
2022/06/16 03:41:00;;;;;;;4.40;3.33;;;17.10;99.90;;;;;;5078106;28;20761;-59
2022/06/16 03:43:26;;;;;;;4.75;3.30;;;17.20;99.90;;;;;;5078050;28;20314;-59
2022/06/16 03:45:53;;;;;;;5.28;3.17;;;17.20;99.90;;;;;;5076805;28;20205;-59
2022/06/16 03:48:20;;;;;;;6.22;3.20;;;17.40;99.90;;;;;;5077239;28;20204;-59
2022/06/16 03:50:47;;;;;;;5.60;2.92;;;17.50;99.90;;;;;;5077853;28;20252;-60
2022/06/16 03:53:13;;;;;;;5.23;3.20;;;17.50;99.90;;;;;;5077223;28;20634;-59
2022/06/16 03:55:41;;;;;;;4.57;3.20;;;17.60;99.90;;;;;;5077067;28;20211;-59
2022/06/16 03:58:08;;;;;;;4.97;3.17;;;17.70;99.90;;;;;;5076659;28;20212;-59
2022/06/16 04:00:35;;;;;;;3.88;3.30;;;17.80;99.90;;;;;;5076397;28;20221;-59
2022/06/16 04:05:46;;;;;;;8.48;3.58;;;17.90;99.90;;;;;;5075761;28;20672;-59
2022/06/16 04:08:16;;;;;;;6.15;3.17;;;18.00;99.90;;;;;;5075719;28;20205;-59
2022/06/16 04:10:44;;;;;;;5.38;3.25;;;18.10;99.90;;;;;;5075935;28;20229;-59
2022/06/16 04:13:11;;;;;;;6.47;3.38;;;18.20;99.90;;;;;;5075676;28;20664;-59
2022/06/16 04:15:39;;;;;;;4.50;3.08;;;18.30;99.90;;;;;;5076026;28;20224;-59
2022/06/16 04:18:06;;;;;;;4.85;3.08;;;18.40;99.90;;;;;;5076421;28;20236;-60
2022/06/16 04:20:33;;;;;;;6.97;3.53;;;18.60;99.90;;;;;;5075264;28;20250;-59
2022/06/16 04:23:00;;;;;;;3.92;3.20;;;18.70;99.90;;;;;;5075436;28;20211;-60
2022/06/16 04:25:30;;;;;;;5.90;3.13;;;18.80;99.90;;;;;;5076036;28;20235;-60
2022/06/16 04:27:58;;;;;;;5.47;3.20;;;19.00;99.90;;;;;;5075707;28;20209;-60
2022/06/16 04:30:25;;;;;;;4.97;3.30;;;19.10;99.90;;;;;;5075646;28;20221;-60
2022/06/16 04:32:52;;;;;;;5.28;3.42;;;19.30;99.90;;;;;;5075656;28;20288;-59
2022/06/16 04:35:19;;;;;;;6.03;3.70;;;19.50;99.90;;;;;;5074858;28;20204;-60
2022/06/16 04:37:45;;;;;;;6.80;3.33;;;19.60;99.90;;;;;;5074523;28;20208;-60
2022/06/16 04:40:13;;;;;;;5.82;3.05;;;19.80;99.90;;;;;;5074266;28;20229;-59
2022/06/16 04:42:40;;;;;;;4.07;3.35;;;19.80;99.90;;;;;;5073998;28;20211;-59
2022/06/16 04:45:10;;;;;;;10.57;7.15;;;19.70;99.90;;;;;;5074032;28;20204;-59
2022/06/16 04:47:37;;;;;;;6.15;4.05;;;19.70;99.90;;;;;;5074363;28;20207;-59
2022/06/16 04:50:05;;;;;;;6.22;3.63;;;20.00;99.90;;;;;;5074013;28;20225;-60
2022/06/16 04:52:32;;;;;;;10.40;3.45;;;20.50;99.90;;;;;;5073413;28;20708;-60
2022/06/16 04:54:59;;;;;;;4.72;4.22;;;21.90;99.90;;;;;;5073816;28;20211;-59
2022/06/16 04:57:26;;;;;;;7.85;3.40;;;23.30;99.90;;;;;;5074646;28;20685;-59
2022/06/16 04:59:53;;;;;;;4.93;3.80;;;24.80;99.90;;;;;;5073962;28;20227;-60
2022/06/16 05:02:21;;;;;;;5.00;3.95;;;26.00;99.90;;;;;;5073880;28;20205;-60
2022/06/16 05:04:48;;;;;;;5.03;3.45;;;26.50;98.90;;;;;;5073735;28;20225;-61
2022/06/16 05:07:16;;;;;;;5.00;3.70;;;26.10;97.40;;;;;;5073524;28;20258;-61
2022/06/16 05:09:42;;;;;;;5.45;3.60;;;25.60;97.70;;;;;;5073946;28;20238;-60
2022/06/16 05:12:10;;;;;;;5.68;3.85;;;25.40;98.00;;;;;;5073063;28;20224;-60
2022/06/16 05:14:37;;;;;;;8.63;6.35;;;25.30;98.20;;;;;;5073043;28;20227;-61
2022/06/16 05:17:04;;;;;;;3.55;3.25;;;25.70;97.70;;;;;;5073841;28;20209;-60
2022/06/16 05:19:32;;;;;;;7.03;4.45;;;25.90;96.20;;;;;;5073680;28;20576;-60
2022/06/16 05:22:01;;;;;;;4.45;3.28;;;25.60;96.60;;;;;;5074433;28;20209;-61
2022/06/16 05:24:28;;;;;;;4.32;2.90;;;25.80;96.60;;;;;;5073096;28;20232;-60
2022/06/16 05:26:55;;;;;;;8.07;7.07;;;26.40;95.40;;;;;;5072714;28;20655;-60
2022/06/16 05:29:22;;;;;;;6.00;3.42;;;26.60;94.90;;;;;;5073076;28;20209;-60
2022/06/16 05:31:49;;;;;;;7.25;5.35;;;26.50;94.70;;;;;;5072897;28;20232;-61
2022/06/16 05:34:16;;;;;;;3.55;3.10;;;26.20;94.80;;;;;;5072662;28;20209;-60
2022/06/16 05:36:45;;;;;;;4.28;3.10;;;25.90;95.40;;;;;;5072663;28;20208;-60
2022/06/16 05:39:12;;;;;;;6.10;3.92;;;25.90;95.60;;;;;;5072776;28;20209;-60
2022/06/16 05:41:39;;;;;;;3.20;2.90;;;25.80;95.90;;;;;;5072690;28;20212;-61
2022/06/16 05:44:06;;;;;;;5.47;3.13;;;25.50;96.30;;;;;;5072407;28;20205;-60
2022/06/16 05:46:33;;;;;;;4.13;3.13;;;25.00;97.20;;;;;;5072673;28;20205;-60
2022/06/16 05:49:00;;;;;;;3.95;3.20;;;24.40;98.30;;;;;;5073298;28;20209;-60
2022/06/16 05:51:26;;;;;;;4.70;3.35;;;24.00;99.70;;;;;;5072449;28;20225;-60
2022/06/16 05:53:54;;;;;;;4.03;3.10;;;23.80;99.90;;;;;;5072064;28;20201;-62
2022/06/16 05:56:21;;;;;;;6.45;3.47;;;23.70;99.90;;;;;;5069729;28;20205;-60
2022/06/16 05:58:48;;;;;;;5.07;3.70;;;23.80;99.90;;;;;;5070863;28;20209;-59
2022/06/16 06:01:15;;;;;;;5.38;3.40;;;24.20;99.90;;;;;;5071596;28;20225;-62
2022/06/16 06:03:43;;;;;;;6.22;3.50;;;25.10;99.90;;;;;;5073410;28;20224;-67
2022/06/16 06:06:10;;;;;;;3.40;2.88;;;26.60;97.80;;;;;;5073250;28;20661;-69
2022/06/16 06:16:58;;;;;;;7.40;3.75;;;32.90;77.40;;;;;;5072180;28;20516;-64
2022/06/16 06:19:25;;;;;;;4.63;3.30;;;34.10;70.70;;;;;;5073454;28;20228;-64
2022/06/16 06:22:00;;;;;;;4.88;2.97;;;35.20;65.80;;;;;;5073183;28;20605;-63
2022/06/16 06:24:28;;;;;;;4.38;3.15;;;36.00;62.60;;;;;;5073870;28;20208;-63
2022/06/16 06:26:58;;;;;;;4.18;2.85;;;37.40;58.90;;;;;;5075047;28;20212;-62
2022/06/16 06:29:25;;;;;;;4.05;3.03;;;38.40;55.30;;;;;;5073637;28;20672;-62
2022/06/16 06:31:52;;;;;;;5.85;2.80;;;39.40;52.80;;;;;;5074203;28;20231;-64
2022/06/16 06:34:18;;;;;;;5.15;3.20;;;39.50;50.30;;;;;;5075226;28;20232;-64
2022/06/16 06:36:45;;;;;;;4.35;3.13;;;39.30;49.50;;;;;;5073760;28;20208;-63
2022/06/16 06:39:12;;;;;;;4.10;3.00;;;38.70;50.10;;;;;;5074192;28;20208;-63
2022/06/16 06:41:39;;;;;;;5.10;2.67;;;38.60;50.10;;;;;;5074609;28;20305;-64
2022/06/16 06:44:07;;;;;;;3.13;2.40;;;37.90;50.10;;;;;;5072703;28;20554;-63
2022/06/16 06:46:34;;;;;;;3.33;2.50;;;35.90;52.90;;;;;;5072470;28;20201;-60
2022/06/16 06:49:02;;;;;;;4.40;2.50;;;34.40;55.60;;;;;;5071153;28;20208;-62
2022/06/16 06:51:29;;;;;;;3.83;3.00;;;34.70;53.50;;;;;;5067814;28;20298;-61
2022/06/16 06:53:55;;;;;;;4.50;2.83;;;35.10;52.80;;;;;;5071307;28;20687;-61
2022/06/16 06:56:22;;;;;;;5.40;4.07;;;34.50;53.90;;;;;;5071966;28;20243;-63
2022/06/16 06:58:49;;;;;;;4.82;2.80;;;34.20;54.80;;;;;;5072331;28;20212;-62
2022/06/16 07:01:17;;;;;;;3.17;2.60;;;34.00;53.80;;;;;;5071625;28;20229;-62
2022/06/16 07:03:44;;;;;;;4.45;2.47;;;34.30;52.60;;;;;;5071467;28;20278;-61
2022/06/16 07:06:11;;;;;;;4.93;3.10;;;35.40;50.70;;;;;;5071763;28;20261;-62
2022/06/16 07:08:38;;;;;;;9.52;4.25;;;36.80;48.90;;;;;;5071996;28;20209;-63
2022/06/16 07:11:05;;;;;;;4.30;2.90;;;36.20;49.10;;;;;;5071440;28;20239;-63
2022/06/16 07:13:33;;;;;;;5.57;3.17;;;36.30;48.80;;;;;;5072829;28;20270;-62
2022/06/16 07:16:00;;;;;;;5.63;3.10;;;36.60;48.70;;;;;;5072168;28;20244;-62
2022/06/16 07:18:28;;;;;;;4.97;2.78;;;37.90;48.30;;;;;;5071440;28;20249;-62
2022/06/16 07:20:55;;;;;;;4.63;3.22;;;39.30;45.30;;;;;;5073844;28;20661;-66
2022/06/16 07:23:22;;;;;;;5.20;3.22;;;40.90;43.80;;;;;;5074814;28;20307;-64
2022/06/16 07:25:51;;;;;;;5.75;2.90;;;41.50;41.60;;;;;;5074414;28;20208;-62
2022/06/16 07:28:18;;;;;;;3.90;2.92;;;42.10;40.30;;;;;;5078408;28;20440;-63
2022/06/16 07:30:46;;;;;;;5.20;3.10;;;43.00;39.90;;;;;;5078219;28;20224;-64
2022/06/16 07:33:13;;;;;;;4.65;3.90;;;43.70;38.90;;;;;;5076379;28;20220;-63
2022/06/16 07:35:43;;;;;;;5.13;2.63;;;44.90;38.30;;;;;;5075863;28;20212;-64
2022/06/16 07:38:11;;;;;;;8.43;3.33;;;45.60;37.50;;;;;;5076985;28;20390;-64
2022/06/16 07:40:38;;;;;;;3.85;3.10;;;45.30;37.20;;;;;;5077754;28;20231;-64
2022/06/16 07:43:05;;;;;;;3.80;2.72;;;45.30;37.60;;;;;;5076973;28;20573;-64
2022/06/16 07:45:34;;;;;;;4.43;2.65;;;45.50;36.10;;;;;;5076034;28;20211;-64
2022/06/16 07:48:03;;;;;;;3.65;2.60;;;45.30;36.50;;;;;;5075832;28;20236;-64
2022/06/16 07:50:31;;;;;;;5.13;2.67;;;45.00;36.80;;;;;;5075390;28;20242;-64
2022/06/16 07:52:59;;;;;;;2.70;2.40;;;45.50;35.70;;;;;;5076098;28;20668;-63
2022/06/16 07:55:27;;;;;;;4.72;2.60;;;45.30;36.00;;;;;;5075534;28;20211;-64
2022/06/16 07:57:54;;;;;;;4.38;2.45;;;43.70;37.10;;;;;;5077127;28;20228;-63
2022/06/16 08:00:24;;;;;;;4.75;3.08;;;42.00;39.10;;;;;;5074943;28;20263;-63
2022/06/16 08:02:51;;;;;;;5.07;2.90;;;41.00;40.00;;;;;;5074218;28;20204;-61
2022/06/16 08:05:19;;;;;;;4.30;2.60;;;40.10;40.70;;;;;;5073685;28;20246;-61
2022/06/16 08:07:46;;;;;;;5.60;2.65;;;39.70;41.50;;;;;;5073759;28;20213;-61
2022/06/16 08:10:16;;;;;;;4.40;2.70;;;40.30;40.70;;;;;;5073821;28;20232;-61
2022/06/16 08:12:43;;;;;;;5.93;2.50;;;41.30;39.90;;;;;;5073254;28;20220;-61
2022/06/16 08:15:11;;;;;;;3.28;2.50;;;42.10;39.30;;;;;;5073249;28;20208;-61
2022/06/16 08:17:41;;;;;;;3.72;2.90;;;43.10;38.30;;;;;;5072874;28;20250;-61
2022/06/16 08:20:10;;;;;;;4.40;2.72;;;44.10;37.00;;;;;;5073155;28;20239;-61
2022/06/16 08:22:38;;;;;;;6.22;3.00;;;44.50;37.00;;;;;;5073045;28;20200;-61
2022/06/16 08:25:06;;;;;;;6.93;2.80;;;44.30;36.90;;;;;;5073350;28;20200;-61
2022/06/16 08:27:37;;;;;;;4.53;2.90;;;44.40;37.00;;;;;;5072804;28;20201;-60
2022/06/16 08:30:08;;;;;;;7.55;2.80;;;44.30;36.90;;;;;;5072680;28;20229;-60
2022/06/16 08:32:35;;;;;;;4.80;2.80;;;43.20;37.90;;;;;;5072334;28;20232;-60
2022/06/16 08:35:02;;;;;;;6.53;3.38;;;42.90;38.70;;;;;;5072762;28;20532;-60
2022/06/16 08:37:29;;;;;;;4.63;2.90;;;42.00;39.30;;;;;;5072570;28;20266;-60
2022/06/16 08:39:55;;;;;;;6.20;2.80;;;40.10;41.30;;;;;;5073056;28;20281;-60
2022/06/16 08:42:25;;;;;;;3.78;3.30;;;38.10;43.80;;;;;;5072827;28;20655;-60
2022/06/16 08:45:02;;;;;;;3.83;3.22;;;37.20;45.10;;;;;;5072506;28;20241;-60
2022/06/16 08:47:38;;;;;;;4.60;3.10;;;36.80;46.00;;;;;;5072745;28;20292;-60
2022/06/16 08:50:17;;;;;;;5.32;3.08;;;37.30;45.50;;;;;;5072531;28;20229;-59
2022/06/16 08:52:54;;;;;;;5.53;3.03;;;37.40;45.40;;;;;;5073061;28;20224;-61
2022/06/16 08:55:26;;;;;;;4.93;2.88;;;36.80;46.20;;;;;;5072922;28;20212;-61
2022/06/16 08:58:01;;;;;;;5.38;3.13;;;36.10;48.10;;;;;;5073571;28;20742;-61
2022/06/16 09:00:32;;;;;;;4.75;3.03;;;35.30;49.60;;;;;;5073655;28;20318;-60
2022/06/16 09:03:07;;;;;;;3.38;2.90;;;35.10;50.60;;;;;;5073246;28;20231;-60
2022/06/16 09:05:44;;;;;;;4.72;2.75;;;34.70;50.50;;;;;;5074626;28;20209;-61
2022/06/16 09:08:21;;;;;;;3.58;3.00;;;34.00;51.60;;;;;;5073522;28;20276;-60
2022/06/16 09:10:56;;;;;;;4.55;3.10;;;33.00;53.10;;;;;;5072905;28;20629;-61
2022/06/16 09:14:03;;;;;;;6.30;3.20;;;32.00;53.80;;;;;;5072988;28;20242;-61
2022/06/16 09:16:45;;;;;;;4.50;3.22;;;31.10;56.00;;;;;;5062293;28;20240;-61
2022/06/16 09:19:38;;;;;;;4.85;3.10;;;30.70;55.20;;;;;;5073046;28;20648;-59
2022/06/16 09:22:20;;;;;;;4.00;3.10;;;30.40;55.40;;;;;;5073067;28;20207;-59
2022/06/16 09:25:06;;;;;;;4.72;3.53;;;30.00;56.90;;;;;;5073086;28;20209;-59
2022/06/16 09:27:39;;;;;;;6.32;3.22;;;29.90;58.50;;;;;;5072048;28;20291;-60
2022/06/16 09:30:09;;;;;;;7.68;5.05;;;29.50;59.50;;;;;;5072460;28;20281;-60
2022/06/16 09:32:43;;;;;;;5.40;3.53;;;29.30;59.80;;;;;;5071935;28;20217;-60
2022/06/16 09:35:16;;;;;;;6.05;3.70;;;29.30;59.90;;;;;;5071710;28;20205;-59
2022/06/16 09:37:48;;;;;;;5.32;3.30;;;29.20;60.70;;;;;;5071398;28;20694;-60
2022/06/16 09:40:19;;;;;;;6.10;3.42;;;29.10;61.50;;;;;;5071417;28;20235;-60
2022/06/16 09:42:52;;;;;;;4.38;3.28;;;29.10;62.40;;;;;;5071802;28;20209;-62
2022/06/16 09:45:25;;;;;;;5.18;3.60;;;28.90;62.40;;;;;;5071303;28;20204;-59
2022/06/16 09:48:04;;;;;;;9.68;6.75;;;28.70;62.80;;;;;;5071145;28;20216;-63
2022/06/16 09:50:37;;;;;;;6.50;4.30;;;28.80;63.20;;;;;;5071637;28;20224;-61
2022/06/16 09:53:09;;;;;;;7.28;4.03;;;28.90;64.30;;;;;;5071323;28;20225;-61
2022/06/16 09:55:38;;;;;;;6.10;5.28;;;28.90;65.10;;;;;;5071263;28;20215;-60
2022/06/16 09:58:11;;;;;;;4.45;3.35;;;29.10;64.40;;;;;;5071842;28;20208;-60
2022/06/16 10:00:39;;;;;;;5.10;3.35;;;29.20;64.30;;;;;;5072275;28;20221;-61
2022/06/16 10:03:20;;;;;;;7.30;3.53;;;29.10;64.20;;;;;;5072277;28;20204;-64
2022/06/16 10:05:57;;;;;;;9.07;3.85;;;29.00;65.40;;;;;;5073039;28;20212;-62
2022/06/16 10:08:32;;;;;;;3.97;3.33;;;29.10;65.80;;;;;;5072605;28;20212;-61
2022/06/16 10:11:05;;;;;;;6.57;3.20;;;29.10;63.80;;;;;;5072486;28;20236;-62
2022/06/16 10:13:36;;;;;;;11.65;3.40;;;29.20;62.00;;;;;;5071785;28;20311;-60
2022/06/16 10:16:10;;;;;;;5.30;3.20;;;29.10;61.30;;;;;;5071220;28;20212;-61
2022/06/16 10:18:39;;;;;;;15.07;13.65;;;29.20;59.40;;;;;;5071125;28;20676;-62
2022/06/16 10:21:08;;;;;;;5.28;3.50;;;29.20;61.70;;;;;;5071341;28;20233;-61
2022/06/16 10:23:39;;;;;;;8.20;3.85;;;29.20;62.20;;;;;;5071575;28;20200;-61
2022/06/16 10:26:08;;;;;;;8.65;3.67;;;29.20;63.40;;;;;;5072050;28;20205;-62
2022/06/16 10:28:38;;;;;;;5.63;3.85;;;29.30;64.40;;;;;;5071152;28;20208;-61
2022/06/16 10:31:07;;;;;;;7.80;3.63;;;29.20;64.50;;;;;;5071477;28;20297;-61
2022/06/16 10:33:39;;;;;;;7.25;4.30;;;29.10;65.80;;;;;;5071196;28;20227;-61
2022/06/16 10:36:08;;;;;;;8.95;3.92;;;29.20;65.90;;;;;;5071420;28;20209;-61
2022/06/16 10:38:37;;;;;;;6.28;3.60;;;29.30;65.80;;;;;;5071381;28;20201;-61
2022/06/16 10:41:07;;;;;;;6.50;3.55;;;29.40;65.80;;;;;;5071201;28;20229;-61
2022/06/16 10:43:40;;;;;;;10.48;4.20;;;29.60;64.50;;;;;;5070928;28;20204;-61
2022/06/16 10:46:12;;;;;;;5.07;2.85;;;29.60;64.80;;;;;;5071531;28;20212;-61
2022/06/16 10:48:48;;;;;;;6.43;3.65;;;29.60;64.90;;;;;;5071276;28;20673;-61
2022/06/16 10:51:17;;;;;;;5.13;3.83;;;29.70;64.80;;;;;;5071204;28;20234;-61
2022/06/16 10:53:47;;;;;;;13.05;4.03;;;29.80;64.40;;;;;;5070854;28;20224;-61
2022/06/16 10:56:18;;;;;;;5.13;3.22;;;29.70;64.20;;;;;;5074725;28;20209;-61
2022/06/16 10:58:58;;;;;;;5.10;3.05;;;29.50;64.30;;;;;;5074923;28;20207;-60
2022/06/16 11:01:31;;;;;;;5.07;3.45;;;29.30;65.90;;;;;;5075093;28;20220;-61
2022/06/16 11:04:08;;;;;;;4.75;3.22;;;29.30;64.90;;;;;;5074917;28;20200;-63
2022/06/16 11:06:38;;;;;;;6.45;3.58;;;29.40;65.30;;;;;;5075520;28;20220;-60
2022/06/16 11:09:08;;;;;;;3.75;3.03;;;29.40;64.50;;;;;;5075441;28;20209;-61
2022/06/16 11:11:40;;;;;;;4.40;2.92;;;29.40;64.80;;;;;;5075007;28;20235;-62
2022/06/16 11:14:12;;;;;;;4.50;2.92;;;29.50;64.70;;;;;;5074630;28;20259;-61
2022/06/16 11:16:48;;;;;;;5.05;2.92;;;29.70;64.00;;;;;;5075433;28;20204;-62
2022/06/16 11:19:26;;;;;;;7.07;3.08;;;29.90;63.80;;;;;;5074557;28;20238;-64
2022/06/16 11:21:54;;;;;;;4.47;3.10;;;30.00;63.80;;;;;;5074955;28;20209;-61
2022/06/16 11:24:27;;;;;;;10.02;3.78;;;30.10;63.00;;;;;;5074818;28;20568;-62
2022/06/16 11:27:04;;;;;;;5.65;3.00;;;30.20;62.20;;;;;;5075226;28;20232;-61
2022/06/16 11:29:34;;;;;;;4.53;3.22;;;30.30;62.10;;;;;;5074395;28;20266;-61
2022/06/16 11:32:07;;;;;;;10.48;9.52;;;30.30;60.60;;;;;;5075196;28;20640;-63
2022/06/16 11:34:36;;;;;;;6.53;3.00;;;30.30;60.60;;;;;;5074423;28;20228;-62
2022/06/16 11:37:38;;;;;;;4.80;2.97;;;30.40;60.70;;;;;;5074382;28;20215;-62
2022/06/16 11:40:19;;;;;;;4.88;2.90;;;30.70;61.40;;;;;;5074584;28;20259;-62
2022/06/16 11:42:55;;;;;;;7.43;2.90;;;30.50;58.80;;;;;;5074463;28;20583;-62
2022/06/16 11:45:29;;;;;;;3.90;2.47;;;30.20;59.80;;;;;;5074325;28;20212;-62
2022/06/16 11:48:02;;;;;;;4.68;2.60;;;30.00;59.10;;;;;;5074548;28;20208;-63
2022/06/16 11:50:37;;;;;;;8.35;4.78;;;30.00;60.40;;;;;;5074113;28;20229;-63
2022/06/16 11:53:15;;;;;;;2.70;2.33;;;30.00;59.40;;;;;;5074047;28;20225;-63
2022/06/16 11:55:48;;;;;;;6.80;2.75;;;29.90;59.60;;;;;;5074370;28;20200;-63
2022/06/16 11:58:34;;;;;;;3.65;2.33;;;30.00;59.40;;;;;;5074201;28;20208;-62
2022/06/16 12:01:05;;;;;;;4.40;2.08;;;30.20;59.30;;;;;;5074299;28;20225;-62
2022/06/16 12:03:58;;;;;;;5.35;2.50;;;30.30;57.40;;;;;;5074421;28;20209;-63
2022/06/16 12:06:46;;;;;;;5.53;2.72;;;30.30;57.10;;;;;;5073734;28;20208;-62
2022/06/16 12:09:29;;;;;;;3.47;2.70;;;30.20;57.90;;;;;;5074867;28;20215;-62
2022/06/16 12:12:03;;;;;;;4.63;2.53;;;30.10;58.20;;;;;;5075258;28;20204;-62
2022/06/16 12:14:41;;;;;;;7.13;2.45;;;30.10;58.60;;;;;;5074899;28;20223;-62
2022/06/16 12:17:16;;;;;;;5.82;2.50;;;30.20;57.90;;;;;;5074201;28;20619;-64
2022/06/16 12:19:50;;;;;;;3.42;2.47;;;30.30;57.10;;;;;;5074405;28;20323;-64
2022/06/16 12:22:26;;;;;;;7.70;3.10;;;30.30;58.50;;;;;;5074395;28;20223;-63
2022/06/16 12:25:02;;;;;;;5.18;2.85;;;30.30;58.00;;;;;;5074193;28;20676;-63
2022/06/16 12:27:40;;;;;;;5.57;2.60;;;30.40;57.40;;;;;;5074736;28;20205;-63
2022/06/16 12:30:13;;;;;;;6.78;2.20;;;30.60;57.30;;;;;;5075288;28;20228;-63
2022/06/16 12:32:52;;;;;;;5.22;2.20;;;30.50;57.80;;;;;;5073638;28;20700;-63
2022/06/16 12:35:24;;;;;;;8.75;2.72;;;30.50;56.50;;;;;;5073060;28;20681;-64
2022/06/16 12:37:56;;;;;;;4.93;2.60;;;30.60;57.00;;;;;;5073947;28;20205;-62
2022/06/16 12:40:30;;;;;;;3.38;1.95;;;30.70;55.60;;;;;;5073541;28;20263;-64
2022/06/16 12:43:02;;;;;;;4.28;2.40;;;30.80;55.20;;;;;;5072529;28;20570;-63
2022/06/16 12:45:34;;;;;;;3.15;2.22;;;30.90;54.50;;;;;;5072812;28;20258;-63
2022/06/16 12:48:05;;;;;;;3.90;1.90;;;30.80;55.40;;;;;;5073017;28;20215;-63
2022/06/16 12:50:37;;;;;;;6.13;4.57;;;30.80;55.60;;;;;;5073110;28;20315;-63
2022/06/16 12:53:11;;;;;;;5.20;2.40;;;30.80;55.60;;;;;;5073193;28;20219;-64
2022/06/16 12:55:42;;;;;;;6.20;2.15;;;30.90;55.50;;;;;;5073040;28;20585;-63
2022/06/16 12:58:15;;;;;;;4.97;2.10;;;31.00;55.20;;;;;;5072521;28;20276;-64
2022/06/16 13:00:47;;;;;;;2.88;1.85;;;30.80;53.90;;;;;;5072319;28;20246;-63
2022/06/16 13:03:20;;;;;;;3.83;1.92;;;30.50;54.80;;;;;;5072605;28;20229;-63
2022/06/16 13:05:47;;;;;;;3.72;2.50;;;30.40;52.80;;;;;;5072540;28;20209;-63
2022/06/16 13:08:17;;;;;;;5.13;2.45;;;30.20;53.20;;;;;;5073329;28;20213;-63
2022/06/16 13:10:50;;;;;;;5.10;2.25;;;30.20;53.30;;;;;;5072849;28;20232;-64
2022/06/16 13:13:23;;;;;;;3.70;2.20;;;30.30;53.20;;;;;;5072497;28;20228;-64
2022/06/16 13:15:55;;;;;;;4.25;2.00;;;30.50;53.80;;;;;;5072053;28;20200;-64
2022/06/16 13:18:26;;;;;;;4.88;2.17;;;30.40;51.10;;;;;;5072061;28;20236;-64
2022/06/16 13:20:59;;;;;;;7.32;2.17;;;30.20;52.10;;;;;;5072251;28;20231;-64